Sunman, Indiana
Current Conditions -  °F | °C
As of 12:15 PM on Thursday 27 Nov 2014 (Local Time) from KI67 Reporting Station
Overcast Overcast  
Wind Chill: 27°   Ceiling: 3100
Heat Index: 34°   Visibility: 10mi
Dew Point: 23°   Wind: 8mph
Humidity: 65%   Direction: 310°NW
Pressure: 30.29"   Gusts: NA
Location:  39.24°N, 85.09°W
Report Text: KI67 271715Z AUTO 31007KT 10SM BKN031 OVC035 01/M05 A3029 RMK AO1
Loading
Personal Weather Stations






























Interactive Weather Map New forecast layout! Learn more

10-Day Weather Forecast

Advertisements
Track Severe Weather on mobile